createdAt,value
2018-04-19T00:01:21.595Z,11.30
2018-04-19T00:03:49.822Z,11.30
2018-04-19T00:06:17.282Z,11.30
2018-04-19T00:08:45.505Z,11.30
2018-04-19T00:11:13.046Z,11.20
2018-04-19T00:13:40.489Z,11.20
2018-04-19T00:16:07.973Z,11.10
2018-04-19T00:18:35.479Z,11.20
2018-04-19T00:21:02.936Z,11.10
2018-04-19T00:23:30.428Z,11.10
2018-04-19T00:25:57.898Z,11.00
2018-04-19T00:28:25.358Z,11.00
2018-04-19T00:30:52.883Z,11.00
2018-04-19T00:33:20.323Z,11.00
2018-04-19T00:35:49.314Z,11.00
2018-04-19T00:38:16.777Z,11.00
2018-04-19T00:40:45.027Z,10.80
2018-04-19T00:43:13.030Z,10.80
2018-04-19T00:45:41.287Z,10.70
2018-04-19T00:48:08.746Z,10.70
2018-04-19T00:50:36.195Z,10.70
2018-04-19T00:53:09.621Z,10.70
2018-04-19T00:55:37.834Z,10.70
2018-04-19T00:58:05.324Z,10.70
2018-04-19T01:00:32.837Z,10.70
2018-04-19T01:03:00.338Z,10.60
2018-04-19T01:05:27.796Z,10.60
2018-04-19T01:07:55.241Z,10.60
2018-04-19T01:10:22.754Z,10.50
2018-04-19T01:12:50.944Z,10.30
2018-04-19T01:15:18.398Z,10.30
2018-04-19T01:17:45.927Z,10.30
2018-04-19T01:20:13.374Z,10.30
2018-04-19T01:22:40.839Z,10.20
2018-04-19T01:25:08.330Z,10.20
2018-04-19T01:27:35.832Z,10.10
2018-04-19T01:30:04.255Z,10.20
2018-04-19T01:32:31.719Z,10.20
2018-04-19T01:34:59.196Z,10.10
2018-04-19T01:37:26.695Z,10.10
2018-04-19T01:39:54.146Z,10.10
2018-04-19T01:42:22.383Z,10.20
2018-04-19T01:44:49.873Z,10.20
2018-04-19T01:47:18.134Z,10.10
2018-04-19T01:49:45.582Z,10.00
2018-04-19T01:52:13.043Z,10.00
2018-04-19T01:54:40.557Z,10.00
2018-04-19T01:57:08.047Z,10.00
2018-04-19T01:59:35.529Z,10.00
2018-04-19T02:02:02.991Z,9.90
2018-04-19T02:04:31.238Z,9.90
2018-04-19T02:06:58.691Z,9.90
2018-04-19T02:09:26.179Z,9.80
2018-04-19T02:11:54.398Z,9.80
2018-04-19T02:14:21.867Z,9.70
2018-04-19T02:16:49.311Z,9.70
2018-04-19T02:19:16.811Z,9.70
2018-04-19T02:21:44.211Z,9.70
2018-04-19T02:24:11.698Z,9.80
2018-04-19T02:26:39.161Z,9.80
2018-04-19T02:29:06.595Z,9.70
2018-04-19T02:31:34.119Z,9.60
2018-04-19T02:34:01.567Z,9.70
2018-04-19T02:36:29.007Z,9.70
2018-04-19T02:38:56.855Z,9.60
2018-04-19T02:41:24.342Z,9.50
2018-04-19T02:43:52.603Z,9.50
2018-04-19T02:46:20.055Z,9.50
2018-04-19T02:48:47.580Z,9.50
2018-04-19T02:51:15.047Z,9.40
2018-04-19T02:53:42.533Z,9.40
2018-04-19T02:56:10.794Z,9.40
2018-04-19T02:58:38.257Z,9.30
2018-04-19T03:01:05.736Z,9.30
2018-04-19T03:03:33.970Z,9.30
2018-04-19T03:06:01.416Z,9.20
2018-04-19T03:08:28.903Z,9.20
2018-04-19T03:10:56.363Z,9.20
2018-04-19T03:13:23.908Z,9.20
2018-04-19T03:15:51.357Z,9.10
2018-04-19T03:18:18.882Z,9.10
2018-04-19T03:20:46.367Z,9.10
2018-04-19T03:23:13.827Z,9.10
2018-04-19T03:25:41.364Z,9.10
2018-04-19T03:28:08.823Z,9.00
2018-04-19T03:30:36.275Z,8.90
2018-04-19T03:33:03.754Z,9.00
2018-04-19T03:35:31.655Z,9.00
2018-04-19T03:37:59.095Z,9.10
2018-04-19T03:40:26.542Z,9.10
2018-04-19T03:42:54.032Z,9.10
2018-04-19T03:45:21.523Z,9.10
2018-04-19T03:47:49.011Z,9.10
2018-04-19T03:50:16.459Z,9.00
2018-04-19T03:52:43.919Z,8.90
2018-04-19T03:55:11.395Z,8.90
2018-04-19T03:57:39.824Z,8.80
2018-04-19T04:00:07.453Z,8.80
2018-04-19T04:02:34.956Z,8.80
2018-04-19T04:05:02.486Z,8.70
2018-04-19T04:07:29.990Z,8.70
2018-04-19T04:09:57.492Z,8.70
2018-04-19T04:12:24.958Z,8.60
2018-04-19T04:14:52.434Z,8.50
2018-04-19T04:17:31.807Z,8.50
2018-04-19T04:23:30.739Z,8.50
2018-04-19T04:25:59.040Z,8.50
2018-04-19T04:28:26.540Z,8.50
2018-04-19T04:30:53.991Z,8.50
2018-04-19T04:33:21.468Z,8.50
2018-04-19T04:35:49.148Z,8.40
2018-04-19T04:38:17.429Z,8.40
2018-04-19T04:40:44.934Z,8.40
2018-04-19T04:43:12.392Z,8.50
2018-04-19T04:45:39.863Z,8.50
2018-04-19T04:48:07.739Z,8.50
2018-04-19T04:50:35.175Z,8.60
2018-04-19T04:53:02.649Z,8.60
2018-04-19T04:55:30.144Z,8.60
2018-04-19T04:57:57.583Z,8.70
2018-04-19T05:00:25.810Z,8.80
2018-04-19T05:02:53.269Z,8.80
2018-04-19T05:05:20.873Z,8.90
2018-04-19T05:07:49.127Z,9.00
2018-04-19T05:10:16.570Z,9.00
2018-04-19T05:12:44.058Z,9.10
2018-04-19T05:15:12.286Z,9.20
2018-04-19T05:17:39.791Z,9.20
2018-04-19T05:20:08.035Z,9.20
2018-04-19T05:22:36.279Z,9.30
2018-04-19T05:25:04.173Z,9.30
2018-04-19T05:27:32.064Z,9.40
2018-04-19T05:32:31.293Z,9.40
2018-04-19T05:34:59.551Z,9.60
2018-04-19T05:37:27.013Z,9.70
2018-04-19T05:39:55.290Z,9.80
2018-04-19T05:42:23.563Z,10.20
2018-04-19T05:44:51.774Z,10.20
2018-04-19T05:47:19.242Z,10.20
2018-04-19T05:49:46.775Z,10.60
2018-04-19T05:52:14.302Z,11.80
2018-04-19T05:54:41.373Z,13.10
2018-04-19T05:57:08.444Z,14.40
2018-04-19T05:59:35.479Z,14.90
2018-04-19T06:02:02.966Z,15.40
2018-04-19T06:04:31.563Z,16.60
2018-04-19T06:06:59.088Z,16.50
2018-04-19T06:09:26.606Z,16.10
2018-04-19T06:11:54.875Z,17.60
2018-04-19T06:14:23.141Z,18.10
2018-04-19T06:16:50.666Z,18.10
2018-04-19T06:19:18.151Z,17.70
2018-04-19T06:21:45.676Z,18.20
2018-04-19T06:24:13.146Z,18.20
2018-04-19T06:26:40.653Z,18.10
2018-04-19T06:29:08.907Z,18.30
2018-04-19T06:31:36.436Z,18.20
2018-04-19T06:34:03.983Z,19.10
2018-04-19T06:36:31.501Z,19.20
2018-04-19T06:38:59.022Z,20.00
2018-04-19T06:41:26.550Z,20.20
2018-04-19T06:43:54.754Z,20.80
2018-04-19T06:46:22.226Z,20.90
2018-04-19T06:48:49.704Z,20.50
2018-04-19T06:51:18.017Z,20.00
2018-04-19T06:56:39.039Z,19.60
2018-04-19T06:59:06.518Z,19.40
2018-04-19T07:01:33.998Z,19.30
2018-04-19T07:04:01.438Z,19.40
2018-04-19T07:06:29.020Z,19.30
2018-04-19T07:08:56.450Z,19.80
2018-04-19T07:11:23.968Z,20.10
2018-04-19T07:13:51.423Z,20.40
2018-04-19T07:16:18.863Z,20.40
2018-04-19T07:18:47.070Z,21.30
2018-04-19T07:21:14.514Z,21.30
2018-04-19T07:23:41.967Z,21.90
2018-04-19T07:26:09.387Z,22.10
2018-04-19T07:28:36.821Z,21.60
2018-04-19T07:31:04.254Z,22.40
2018-04-19T07:33:31.708Z,22.60
2018-04-19T07:35:59.140Z,22.60
2018-04-19T07:38:26.574Z,22.10
2018-04-19T07:40:54.790Z,22.20
2018-04-19T07:43:22.233Z,22.10
2018-04-19T07:45:49.670Z,22.00
2018-04-19T07:48:17.885Z,21.80
2018-04-19T07:50:45.331Z,21.80
2018-04-19T07:53:12.758Z,21.70
2018-04-19T07:55:40.234Z,22.20
2018-04-19T07:58:07.630Z,22.20
2018-04-19T08:00:35.074Z,22.50
2018-04-19T08:03:02.524Z,22.30
2018-04-19T08:05:30.004Z,22.30
2018-04-19T08:07:57.408Z,21.90
2018-04-19T08:10:24.829Z,22.40
2018-04-19T08:12:52.263Z,22.30
2018-04-19T08:15:19.691Z,22.20
2018-04-19T08:17:47.123Z,22.40
2018-04-19T08:20:14.549Z,22.70
2018-04-19T08:22:41.990Z,23.50
2018-04-19T08:25:09.431Z,23.80
2018-04-19T08:27:36.874Z,23.30
2018-04-19T08:30:04.318Z,23.30
2018-04-19T08:32:31.750Z,23.80
2018-04-19T08:34:59.947Z,23.80
2018-04-19T08:37:27.370Z,23.80
2018-04-19T08:39:55.577Z,23.60
2018-04-19T08:42:23.019Z,23.50
2018-04-19T08:44:50.445Z,24.20
2018-04-19T08:47:17.418Z,24.80
2018-04-19T08:49:44.421Z,25.20
2018-04-19T08:52:11.406Z,24.20
2018-04-19T08:54:38.401Z,23.70
2018-04-19T08:57:05.877Z,25.20
2018-04-19T08:59:33.352Z,25.80
2018-04-19T09:02:01.552Z,26.10
2018-04-19T09:04:28.985Z,26.00
2018-04-19T09:06:57.177Z,26.30
2018-04-19T09:09:24.610Z,26.90
2018-04-19T09:11:52.816Z,27.50
2018-04-19T09:14:20.241Z,27.50
2018-04-19T09:16:48.438Z,26.80
2018-04-19T09:19:15.865Z,26.80
2018-04-19T09:21:44.077Z,28.50
2018-04-19T09:24:11.512Z,28.40
2018-04-19T09:26:38.961Z,28.50
2018-04-19T09:29:07.179Z,26.90
2018-04-19T09:31:34.694Z,26.90
2018-04-19T09:34:02.918Z,28.20
2018-04-19T09:36:30.341Z,28.20
2018-04-19T09:38:57.770Z,26.70
2018-04-19T09:41:25.198Z,27.30
2018-04-19T09:43:52.638Z,28.00
2018-04-19T09:46:20.069Z,27.90
2018-04-19T09:48:47.505Z,27.90
2018-04-19T09:51:15.695Z,28.10
2018-04-19T09:53:43.124Z,28.10
2018-04-19T09:56:11.310Z,28.30
2018-04-19T09:58:38.748Z,28.30
2018-04-19T10:01:08.973Z,28.30
2018-04-19T10:03:42.890Z,28.80
2018-04-19T10:06:11.099Z,29.30
2018-04-19T10:08:38.530Z,29.20
2018-04-19T10:11:05.958Z,29.10
2018-04-19T10:13:33.405Z,29.30
2018-04-19T10:16:00.904Z,29.00
2018-04-19T10:18:28.261Z,29.30
2018-04-19T10:20:55.701Z,29.50
2018-04-19T10:23:23.908Z,28.70
2018-04-19T10:25:52.111Z,28.90
2018-04-19T10:28:19.537Z,28.90
2018-04-19T10:30:46.978Z,28.10
2018-04-19T10:33:14.394Z,29.00
2018-04-19T10:35:41.835Z,27.80
2018-04-19T10:38:09.271Z,27.60
2018-04-19T10:40:36.715Z,27.80
2018-04-19T10:43:04.150Z,28.70
2018-04-19T10:45:32.347Z,27.90
2018-04-19T10:47:59.771Z,27.90
2018-04-19T10:50:27.977Z,27.70
2018-04-19T10:52:55.405Z,27.70
2018-04-19T10:55:22.851Z,29.00
2018-04-19T10:57:51.062Z,28.50
2018-04-19T11:00:18.506Z,29.00
2018-04-19T11:02:45.933Z,29.00
2018-04-19T11:05:13.365Z,29.80
2018-04-19T11:07:40.807Z,29.10
2018-04-19T11:10:08.242Z,28.60
2018-04-19T11:12:35.673Z,28.80
2018-04-19T11:15:03.119Z,29.10
2018-04-19T11:17:31.332Z,29.30
2018-04-19T11:19:58.768Z,29.20
2018-04-19T11:22:26.294Z,28.90
2018-04-19T11:24:53.701Z,28.80
2018-04-19T11:27:21.125Z,28.50
2018-04-19T11:29:48.558Z,29.00
2018-04-19T11:32:16.015Z,29.10
2018-04-19T11:34:43.450Z,29.10
2018-04-19T11:37:10.893Z,28.90
2018-04-19T11:39:38.331Z,29.00
2018-04-19T11:42:05.800Z,28.50
2018-04-19T11:44:33.231Z,28.80
2018-04-19T11:47:00.666Z,28.40
2018-04-19T11:49:28.863Z,28.00
2018-04-19T11:51:56.284Z,28.00
2018-04-19T11:54:24.481Z,29.60
2018-04-19T11:56:51.910Z,29.50
2018-04-19T11:59:19.349Z,29.00
2018-04-19T12:01:46.782Z,28.90
2018-04-19T12:04:14.210Z,29.30
2018-04-19T12:06:41.642Z,29.60
2018-04-19T12:09:09.839Z,30.00
2018-04-19T12:11:37.261Z,29.90
2018-04-19T12:14:04.688Z,29.70
2018-04-19T12:16:32.509Z,28.90
2018-04-19T12:18:59.929Z,28.90
2018-04-19T12:21:27.373Z,28.70
2018-04-19T12:23:54.814Z,30.10
2018-04-19T12:26:22.253Z,29.90
2018-04-19T12:28:49.674Z,29.60
2018-04-19T12:31:17.873Z,29.60
2018-04-19T12:33:45.302Z,29.60
2018-04-19T12:36:12.730Z,29.20
2018-04-19T12:38:40.158Z,29.30
2018-04-19T12:41:07.605Z,28.80
2018-04-19T12:43:35.034Z,29.70
2018-04-19T12:46:03.225Z,29.30
2018-04-19T12:48:30.659Z,29.30
2018-04-19T12:50:58.864Z,29.20
2018-04-19T12:53:26.286Z,29.20
2018-04-19T12:55:54.486Z,29.10
2018-04-19T12:58:21.913Z,29.10
2018-04-19T13:00:50.115Z,29.40
2018-04-19T13:03:18.306Z,30.20
2018-04-19T13:05:45.729Z,30.10
2018-04-19T13:08:13.207Z,29.10
2018-04-19T13:10:44.454Z,29.40
2018-04-19T13:13:16.193Z,28.80
2018-04-19T13:15:44.098Z,28.70
2018-04-19T13:18:11.991Z,29.10
2018-04-19T13:20:39.399Z,29.00
2018-04-19T13:23:07.604Z,29.20
2018-04-19T13:25:35.021Z,29.20
2018-04-19T13:28:02.458Z,29.30
2018-04-19T13:30:29.879Z,28.40
2018-04-19T13:32:57.314Z,29.00
2018-04-19T13:35:24.746Z,29.00
2018-04-19T13:37:52.178Z,28.30
2018-04-19T13:40:19.623Z,28.50
2018-04-19T13:42:47.058Z,28.60
2018-04-19T13:45:14.492Z,28.80
2018-04-19T13:47:41.928Z,29.00
2018-04-19T13:50:10.148Z,28.70
2018-04-19T13:52:37.587Z,28.70
2018-04-19T13:55:05.030Z,28.60
2018-04-19T13:57:33.242Z,28.70
2018-04-19T14:00:00.678Z,28.70
2018-04-19T14:02:28.131Z,28.30
2018-04-19T14:04:55.559Z,28.60
2018-04-19T14:07:23.857Z,28.00
2018-04-19T14:09:51.456Z,27.90
2018-04-19T14:12:18.978Z,27.90
2018-04-19T14:14:46.452Z,28.20
2018-04-19T14:17:13.943Z,28.30
2018-04-19T14:19:41.451Z,28.00
2018-04-19T14:22:08.930Z,28.30
2018-04-19T14:24:40.504Z,28.10
2018-04-19T14:27:08.786Z,27.90
2018-04-19T14:29:36.285Z,27.90
2018-04-19T14:32:03.799Z,27.80
2018-04-19T14:34:31.281Z,27.50
2018-04-19T14:36:58.707Z,27.90
2018-04-19T14:39:26.158Z,27.70
2018-04-19T14:41:53.664Z,27.60
2018-04-19T14:44:21.155Z,27.70
2018-04-19T14:46:48.577Z,28.00
2018-04-19T14:49:16.812Z,27.50
2018-04-19T14:51:44.222Z,27.40
2018-04-19T14:54:11.649Z,27.50
2018-04-19T14:56:39.866Z,27.60
2018-04-19T14:59:07.306Z,27.60
2018-04-19T15:01:34.726Z,27.50
2018-04-19T15:04:02.195Z,27.50
2018-04-19T15:06:30.382Z,27.30
2018-04-19T15:08:58.587Z,27.40
2018-04-19T15:11:26.013Z,27.40
2018-04-19T15:13:53.453Z,27.30
2018-04-19T15:16:21.651Z,27.50
2018-04-19T15:18:49.090Z,27.50
2018-04-19T15:21:17.716Z,27.20
2018-04-19T15:23:45.206Z,27.20
2018-04-19T15:26:12.730Z,27.10
2018-04-19T15:28:39.847Z,27.10
2018-04-19T15:31:06.932Z,27.10
2018-04-19T15:33:34.423Z,27.20
2018-04-19T15:36:01.939Z,27.10
2018-04-19T15:38:29.451Z,27.10
2018-04-19T15:40:56.889Z,27.00
2018-04-19T15:43:24.330Z,26.80
2018-04-19T15:45:51.766Z,26.80
2018-04-19T15:48:19.199Z,27.00
2018-04-19T15:50:46.630Z,26.90
2018-04-19T15:53:14.066Z,26.90
2018-04-19T15:55:41.511Z,26.80
2018-04-19T15:58:08.944Z,26.80
2018-04-19T16:00:36.389Z,26.80
2018-04-19T16:03:03.826Z,26.60
2018-04-19T16:05:32.037Z,26.70
2018-04-19T16:07:59.680Z,26.70
2018-04-19T16:10:27.110Z,26.50
2018-04-19T16:12:55.318Z,26.40
2018-04-19T16:15:22.762Z,26.40
2018-04-19T16:17:50.186Z,26.40
2018-04-19T16:20:17.624Z,26.30
2018-04-19T16:22:45.062Z,26.20
2018-04-19T16:25:12.900Z,26.20
2018-04-19T16:27:40.326Z,26.20
2018-04-19T16:30:08.531Z,26.20
2018-04-19T16:32:35.958Z,26.20
2018-04-19T16:35:03.417Z,26.20
2018-04-19T16:37:31.698Z,26.20
2018-04-19T16:39:59.138Z,26.10
2018-04-19T16:42:26.702Z,26.20
2018-04-19T16:44:54.149Z,26.10
2018-04-19T16:47:21.615Z,26.00
2018-04-19T16:49:49.189Z,26.00
2018-04-19T16:52:17.447Z,25.80
2018-04-19T16:54:44.923Z,25.80
2018-04-19T16:57:13.198Z,25.70
2018-04-19T16:59:40.710Z,25.70
2018-04-19T17:02:08.251Z,26.00
2018-04-19T17:04:36.502Z,25.60
2018-04-19T17:07:04.711Z,25.50
2018-04-19T17:09:32.172Z,25.50
2018-04-19T17:11:59.678Z,25.40
2018-04-19T17:14:27.905Z,25.30
2018-04-19T17:16:55.394Z,25.30
2018-04-19T17:19:22.920Z,25.30
2018-04-19T17:21:50.414Z,25.20
2018-04-19T17:24:17.830Z,25.10
2018-04-19T17:26:45.368Z,25.00
2018-04-19T17:29:12.874Z,24.90
2018-04-19T17:31:40.362Z,24.80
2018-04-19T17:34:08.657Z,24.80
2018-04-19T17:36:36.443Z,24.80
2018-04-19T17:39:03.905Z,24.80
2018-04-19T17:41:31.420Z,24.80
2018-04-19T17:43:58.421Z,24.60
2018-04-19T17:46:25.451Z,24.40
2018-04-19T17:48:53.233Z,24.30
2018-04-19T17:51:20.313Z,24.30
2018-04-19T17:53:47.397Z,24.30
2018-04-19T17:56:14.902Z,24.30
2018-04-19T17:58:42.404Z,24.10
2018-04-19T18:01:09.923Z,24.20
2018-04-19T18:03:37.390Z,24.00
2018-04-19T18:06:04.857Z,23.80
2018-04-19T18:08:33.167Z,23.70
2018-04-19T18:11:00.659Z,23.60
2018-04-19T18:13:28.109Z,23.40
2018-04-19T18:15:55.630Z,23.20
2018-04-19T18:18:23.930Z,23.00
2018-04-19T18:20:51.392Z,23.00
2018-04-19T18:23:18.874Z,22.60
2018-04-19T18:25:46.655Z,22.10
2018-04-19T18:28:14.174Z,21.80
2018-04-19T18:30:41.641Z,21.50
2018-04-19T18:33:09.122Z,21.10
2018-04-19T18:35:36.613Z,20.90
2018-04-19T18:38:04.873Z,20.40
2018-04-19T18:40:32.696Z,20.30
2018-04-19T18:43:00.175Z,20.00
2018-04-19T18:45:27.611Z,19.80
2018-04-19T18:47:55.131Z,19.60
2018-04-19T18:50:22.558Z,19.50
2018-04-19T18:52:50.083Z,19.30
2018-04-19T18:55:17.595Z,19.10
2018-04-19T18:57:45.859Z,19.10
2018-04-19T19:00:13.375Z,19.00
2018-04-19T19:02:40.862Z,19.00
2018-04-19T19:05:08.477Z,19.00
2018-04-19T19:07:36.015Z,18.90
2018-04-19T19:10:03.535Z,18.80
2018-04-19T19:12:31.018Z,18.60
2018-04-19T19:15:02.854Z,18.60
2018-04-19T19:17:42.284Z,18.50
2018-04-19T19:20:11.466Z,18.20
2018-04-19T19:22:38.971Z,18.20
2018-04-19T19:25:06.482Z,17.90
2018-04-19T19:27:33.995Z,17.80
2018-04-19T19:30:02.204Z,17.60
2018-04-19T19:32:29.668Z,17.60
2018-04-19T19:34:57.153Z,17.40
2018-04-19T19:37:25.081Z,17.40
2018-04-19T19:39:52.657Z,17.30
2018-04-19T19:42:20.828Z,17.20
2018-04-19T19:44:48.403Z,17.10
2018-04-19T19:47:16.714Z,17.10
2018-04-19T19:49:44.622Z,16.90
2018-04-19T19:52:12.143Z,16.80
2018-04-19T19:54:40.376Z,16.70
2018-04-19T19:57:07.908Z,16.70
2018-04-19T19:59:35.379Z,16.60
2018-04-19T20:02:02.931Z,16.50
2018-04-19T20:04:30.511Z,16.40
2018-04-19T20:06:58.031Z,16.40
2018-04-19T20:09:25.534Z,16.20
2018-04-19T20:11:53.057Z,16.10
2018-04-19T20:14:20.545Z,16.10
2018-04-19T20:16:48.649Z,15.80
2018-04-19T20:19:16.217Z,15.80
2018-04-19T20:21:43.751Z,15.70
2018-04-19T20:24:11.260Z,15.70
2018-04-19T20:26:38.760Z,15.70
2018-04-19T20:29:06.235Z,15.50
2018-04-19T20:31:34.490Z,15.50
2018-04-19T20:34:02.038Z,15.30
2018-04-19T20:36:29.523Z,15.30
2018-04-19T20:38:57.038Z,15.30
2018-04-19T20:41:24.542Z,15.20
2018-04-19T20:43:52.823Z,15.00
2018-04-19T20:46:21.090Z,15.00
2018-04-19T20:48:48.541Z,15.00
2018-04-19T20:51:16.016Z,14.90
2018-04-19T20:53:44.255Z,14.90
2018-04-19T20:56:11.741Z,14.90
2018-04-19T20:58:40.022Z,14.70
2018-04-19T21:01:08.269Z,14.70
2018-04-19T21:03:35.768Z,14.70
2018-04-19T21:06:04.045Z,14.50
2018-04-19T21:08:31.572Z,14.50
2018-04-19T21:10:59.153Z,14.50
2018-04-19T21:13:26.582Z,14.50
2018-04-19T21:15:54.102Z,14.40
2018-04-19T21:18:21.663Z,14.30
2018-04-19T21:20:49.217Z,14.30
2018-04-19T21:23:17.489Z,14.20
2018-04-19T21:25:45.015Z,14.10
2018-04-19T21:28:12.536Z,14.20
2018-04-19T21:30:40.069Z,14.10
2018-04-19T21:33:07.556Z,14.20
2018-04-19T21:35:35.042Z,14.00
2018-04-19T21:38:03.297Z,13.90
2018-04-19T21:40:31.576Z,13.80
2018-04-19T21:42:59.842Z,13.80
2018-04-19T21:45:27.424Z,13.70
2018-04-19T21:47:55.707Z,13.70
2018-04-19T21:50:23.236Z,13.70
2018-04-19T21:52:50.734Z,13.60
2018-04-19T21:55:18.234Z,13.40
2018-04-19T21:57:45.743Z,13.40
2018-04-19T22:00:13.272Z,13.50
2018-04-19T22:02:40.825Z,13.40
2018-04-19T22:05:08.323Z,13.40
2018-04-19T22:07:36.206Z,13.30
2018-04-19T22:10:03.698Z,13.30
2018-04-19T22:12:31.211Z,13.20
2018-04-19T22:14:58.723Z,12.90
2018-04-19T22:17:26.259Z,12.90
2018-04-19T22:19:53.758Z,12.90
2018-04-19T22:22:22.034Z,12.80
2018-04-19T22:24:50.331Z,12.80
2018-04-19T22:27:17.835Z,12.80
2018-04-19T22:29:45.367Z,12.70
2018-04-19T22:32:12.880Z,12.80
2018-04-19T22:34:41.132Z,12.70
2018-04-19T22:37:08.638Z,12.60
2018-04-19T22:39:36.189Z,12.60
2018-04-19T22:42:03.647Z,12.50
2018-04-19T22:44:31.164Z,12.40
2018-04-19T22:46:58.678Z,12.40
2018-04-19T22:49:26.144Z,12.20
2018-04-19T22:51:53.662Z,12.20
2018-04-19T22:54:21.934Z,12.00
2018-04-19T22:56:50.214Z,12.00
2018-04-19T22:59:18.510Z,11.90
2018-04-19T23:01:45.992Z,11.90
2018-04-19T23:04:13.882Z,11.80
2018-04-19T23:06:41.372Z,11.70
2018-04-19T23:09:08.837Z,11.70
2018-04-19T23:11:36.284Z,11.70
2018-04-19T23:14:04.530Z,11.80
2018-04-19T23:16:32.052Z,11.70
2018-04-19T23:18:59.579Z,11.70
2018-04-19T23:21:27.861Z,11.60
2018-04-19T23:23:55.335Z,11.60
2018-04-19T23:26:22.807Z,11.70
2018-04-19T23:28:50.331Z,11.70
2018-04-19T23:31:17.814Z,11.70
2018-04-19T23:33:45.279Z,11.70
2018-04-19T23:36:12.774Z,11.60
2018-04-19T23:38:40.235Z,11.50
2018-04-19T23:41:07.687Z,11.50
2018-04-19T23:43:35.169Z,11.40
2018-04-19T23:46:03.370Z,11.30
2018-04-19T23:48:30.874Z,11.30
2018-04-19T23:50:58.342Z,11.30
2018-04-19T23:53:26.647Z,11.20
2018-04-19T23:55:54.130Z,11.20
2018-04-19T23:58:21.677Z,11.10
